RYR3867 EPPO-LIME
Flight info
| Callsign | RYR3867 |
|---|---|
| Flight time | 1h 30m |
| Altitude | 36000 |
| Route | ERNOX P861 RASAN DCT ASTEL DCT BUDEX DCT DETSA/N0464F350 DCT BAKOR DCT NAXAV DCT RENTA/N0397F190 M984 LUSIL T772 EKLIB |
| Aircraft | B738/M-SDE2E3FGHIRWXY/LB1 |
Departure
| Time | 2026-05-06 09:58 |
|---|---|
| Airport | Poznań-Ławica Airport (EPPO) |
Arrival
| Time | 2026-05-06 11:29 |
|---|---|
| Airport | Il Caravaggio International Airport (LIME) |
| Time | Latitude | Longitude | Altitude | Speed | Heading |
|---|---|---|---|---|---|
| 2026-05-06 09:42 | 52.41556 | 16.83198 | 287 ft | 0 kts | 193° |
| 2026-05-06 09:53 | 52.41560 | 16.83199 | 287 ft | 3 kts | 192° |
| 2026-05-06 09:53 | 52.41585 | 16.83202 | 292 ft | 4 kts | 165° |
| 2026-05-06 09:53 | 52.41609 | 16.83185 | 294 ft | 3 kts | 147° |
| 2026-05-06 09:54 | 52.41617 | 16.83177 | 292 ft | 0 kts | 147° |
| 2026-05-06 09:56 | 52.41615 | 16.83190 | 293 ft | 5 kts | 101° |
| 2026-05-06 09:56 | 52.41594 | 16.83357 | 292 ft | 21 kts | 103° |
| 2026-05-06 09:56 | 52.41568 | 16.83585 | 292 ft | 20 kts | 94° |
| 2026-05-06 09:56 | 52.41561 | 16.83810 | 287 ft | 19 kts | 92° |
| 2026-05-06 09:57 | 52.41604 | 16.83949 | 287 ft | 14 kts | 47° |
| 2026-05-06 09:57 | 52.41686 | 16.84014 | 287 ft | 13 kts | 20° |
| 2026-05-06 09:57 | 52.41768 | 16.84062 | 288 ft | 12 kts | 20° |
| 2026-05-06 09:57 | 52.41832 | 16.84027 | 288 ft | 12 kts | 287° |
| 2026-05-06 09:58 | 52.41887 | 16.83730 | 292 ft | 59 kts | 287° |
| 2026-05-06 09:58 | 52.42087 | 16.82714 | 286 ft | 126 kts | 287° |
| 2026-05-06 09:58 | 52.42403 | 16.81107 | 503 ft | 159 kts | 283° |
| 2026-05-06 09:58 | 52.42759 | 16.79347 | 1253 ft | 163 kts | 283° |
| 2026-05-06 09:59 | 52.43123 | 16.77521 | 1924 ft | 172 kts | 283° |
| 2026-05-06 09:59 | 52.43483 | 16.75617 | 2541 ft | 183 kts | 283° |
| 2026-05-06 09:59 | 52.43886 | 16.73476 | 2756 ft | 207 kts | 283° |
| 2026-05-06 09:59 | 52.44334 | 16.71115 | 2975 ft | 226 kts | 283° |
| 2026-05-06 10:00 | 52.44716 | 16.69107 | 3317 ft | 233 kts | 282° |
| 2026-05-06 10:00 | 52.45215 | 16.66486 | 3869 ft | 241 kts | 282° |
| 2026-05-06 10:00 | 52.45712 | 16.63868 | 4544 ft | 245 kts | 282° |
| 2026-05-06 10:00 | 52.46217 | 16.61192 | 5291 ft | 246 kts | 281° |
| 2026-05-06 10:01 | 52.46724 | 16.58495 | 6034 ft | 248 kts | 281° |
| 2026-05-06 10:01 | 52.47235 | 16.55773 | 6702 ft | 251 kts | 281° |
| 2026-05-06 10:01 | 52.47701 | 16.53010 | 7372 ft | 250 kts | 271° |
| 2026-05-06 10:01 | 52.47516 | 16.50259 | 8053 ft | 242 kts | 246° |
| 2026-05-06 10:02 | 52.46669 | 16.47846 | 8565 ft | 249 kts | 228° |
| 2026-05-06 10:02 | 52.45334 | 16.45978 | 9156 ft | 256 kts | 216° |
| 2026-05-06 10:02 | 52.43840 | 16.44374 | 9854 ft | 257 kts | 213° |
| 2026-05-06 10:02 | 52.42281 | 16.42784 | 10164 ft | 274 kts | 213° |
| 2026-05-06 10:03 | 52.40619 | 16.41096 | 10311 ft | 294 kts | 213° |
| 2026-05-06 10:03 | 52.38822 | 16.39265 | 10459 ft | 314 kts | 213° |
| 2026-05-06 10:03 | 52.36919 | 16.37315 | 10596 ft | 332 kts | 213° |
| 2026-05-06 10:03 | 52.34912 | 16.35250 | 10712 ft | 349 kts | 213° |
| 2026-05-06 10:04 | 52.32816 | 16.33087 | 10960 ft | 361 kts | 213° |
| 2026-05-06 10:04 | 52.30670 | 16.30871 | 11405 ft | 366 kts | 213° |
| 2026-05-06 10:04 | 52.28514 | 16.28643 | 11962 ft | 368 kts | 213° |
| 2026-05-06 10:04 | 52.26344 | 16.26401 | 12507 ft | 371 kts | 213° |
| 2026-05-06 10:05 | 52.24148 | 16.24133 | 13055 ft | 374 kts | 213° |
| 2026-05-06 10:05 | 52.21942 | 16.21856 | 13590 ft | 377 kts | 213° |
| 2026-05-06 10:05 | 52.19716 | 16.19560 | 14096 ft | 380 kts | 213° |
| 2026-05-06 10:05 | 52.17475 | 16.17252 | 14634 ft | 382 kts | 213° |
| 2026-05-06 10:06 | 52.15220 | 16.14933 | 15163 ft | 385 kts | 213° |
| 2026-05-06 10:06 | 52.12947 | 16.12597 | 15701 ft | 387 kts | 213° |
| 2026-05-06 10:06 | 52.10686 | 16.10277 | 16229 ft | 390 kts | 213° |
| 2026-05-06 10:06 | 52.08374 | 16.07906 | 16719 ft | 393 kts | 213° |
| 2026-05-06 10:07 | 52.06048 | 16.05524 | 17200 ft | 397 kts | 213° |
| 2026-05-06 10:07 | 52.03699 | 16.03123 | 17686 ft | 400 kts | 213° |
| 2026-05-06 10:07 | 52.01316 | 16.00760 | 18151 ft | 403 kts | 211° |
| 2026-05-06 10:07 | 51.98870 | 15.98514 | 18610 ft | 405 kts | 210° |
| 2026-05-06 10:08 | 51.96391 | 15.96308 | 19085 ft | 406 kts | 210° |
| 2026-05-06 10:08 | 51.93935 | 15.94134 | 19524 ft | 408 kts | 210° |
| 2026-05-06 10:08 | 51.91408 | 15.91889 | 19965 ft | 410 kts | 210° |
| 2026-05-06 10:08 | 51.88944 | 15.89690 | 20447 ft | 410 kts | 210° |
| 2026-05-06 10:09 | 51.86445 | 15.87452 | 20856 ft | 412 kts | 210° |
| 2026-05-06 10:09 | 51.83922 | 15.85188 | 21231 ft | 415 kts | 210° |
| 2026-05-06 10:09 | 51.81393 | 15.82920 | 21621 ft | 417 kts | 210° |
| 2026-05-06 10:09 | 51.78848 | 15.80641 | 22035 ft | 418 kts | 210° |
| 2026-05-06 10:10 | 51.76295 | 15.78356 | 22430 ft | 420 kts | 210° |
| 2026-05-06 10:10 | 51.73733 | 15.76069 | 22796 ft | 422 kts | 210° |
| 2026-05-06 10:10 | 51.71159 | 15.73763 | 23157 ft | 424 kts | 211° |
| 2026-05-06 10:10 | 51.68591 | 15.71393 | 23448 ft | 426 kts | 211° |
| 2026-05-06 10:11 | 51.66029 | 15.68990 | 23732 ft | 427 kts | 212° |
| 2026-05-06 10:11 | 51.63457 | 15.66568 | 24042 ft | 428 kts | 212° |
| 2026-05-06 10:11 | 51.60883 | 15.64150 | 24346 ft | 430 kts | 212° |
| 2026-05-06 10:11 | 51.58325 | 15.61754 | 24625 ft | 431 kts | 211° |
| 2026-05-06 10:12 | 51.55727 | 15.59330 | 24897 ft | 432 kts | 211° |
| 2026-05-06 10:12 | 51.53082 | 15.56871 | 25141 ft | 435 kts | 211° |
| 2026-05-06 10:12 | 51.50488 | 15.54463 | 25352 ft | 437 kts | 211° |
| 2026-05-06 10:12 | 51.47860 | 15.52027 | 25722 ft | 435 kts | 212° |
| 2026-05-06 10:13 | 51.45238 | 15.49600 | 26172 ft | 433 kts | 211° |
| 2026-05-06 10:13 | 51.42636 | 15.47197 | 26634 ft | 430 kts | 211° |
| 2026-05-06 10:13 | 51.40045 | 15.44805 | 27059 ft | 429 kts | 211° |
| 2026-05-06 10:13 | 51.37468 | 15.42430 | 27469 ft | 427 kts | 211° |
| 2026-05-06 10:14 | 51.34897 | 15.40063 | 27900 ft | 425 kts | 211° |
| 2026-05-06 10:14 | 51.32343 | 15.37715 | 28315 ft | 423 kts | 211° |
| 2026-05-06 10:14 | 51.29791 | 15.35371 | 28719 ft | 421 kts | 211° |
| 2026-05-06 10:14 | 51.27255 | 15.33045 | 29098 ft | 420 kts | 212° |
| 2026-05-06 10:15 | 51.24728 | 15.30730 | 29549 ft | 418 kts | 212° |
| 2026-05-06 10:15 | 51.22212 | 15.28427 | 29995 ft | 415 kts | 212° |
| 2026-05-06 10:15 | 51.19716 | 15.26145 | 30303 ft | 414 kts | 212° |
| 2026-05-06 10:15 | 51.17211 | 15.23860 | 30534 ft | 415 kts | 212° |
| 2026-05-06 10:16 | 51.14738 | 15.21606 | 30781 ft | 415 kts | 212° |
| 2026-05-06 10:16 | 51.12228 | 15.19324 | 31096 ft | 414 kts | 212° |
| 2026-05-06 10:16 | 51.09727 | 15.17051 | 31441 ft | 413 kts | 212° |
| 2026-05-06 10:16 | 51.07231 | 15.14785 | 31739 ft | 412 kts | 212° |
| 2026-05-06 10:17 | 51.04742 | 15.12529 | 32008 ft | 412 kts | 212° |
| 2026-05-06 10:17 | 51.02287 | 15.10209 | 32354 ft | 408 kts | 216° |
| 2026-05-06 10:17 | 51.00037 | 15.07476 | 32632 ft | 406 kts | 224° |
| 2026-05-06 10:17 | 50.98041 | 15.04319 | 32863 ft | 406 kts | 226° |
| 2026-05-06 10:18 | 50.96054 | 15.01130 | 33132 ft | 405 kts | 226° |
| 2026-05-06 10:18 | 50.94059 | 14.97972 | 33432 ft | 404 kts | 226° |
| 2026-05-06 10:18 | 50.92061 | 14.94839 | 33724 ft | 404 kts | 226° |
| 2026-05-06 10:18 | 50.90058 | 14.91712 | 33939 ft | 404 kts | 225° |
| 2026-05-06 10:19 | 50.87904 | 14.88932 | 34060 ft | 408 kts | 214° |
| 2026-05-06 10:19 | 50.85374 | 14.86723 | 34214 ft | 411 kts | 208° |
| 2026-05-06 10:19 | 50.82766 | 14.85061 | 34558 ft | 410 kts | 201° |
| 2026-05-06 10:19 | 50.79974 | 14.84032 | 34755 ft | 414 kts | 195° |
| 2026-05-06 10:20 | 50.74253 | 14.82454 | 34957 ft | 419 kts | 194° |
| 2026-05-06 10:20 | 50.71384 | 14.81682 | 35142 ft | 418 kts | 194° |
| 2026-05-06 10:20 | 50.68513 | 14.80902 | 35326 ft | 418 kts | 194° |
| 2026-05-06 10:21 | 50.65642 | 14.80112 | 35469 ft | 419 kts | 194° |
| 2026-05-06 10:21 | 50.62765 | 14.79312 | 35587 ft | 420 kts | 194° |
| 2026-05-06 10:21 | 50.59904 | 14.78512 | 35820 ft | 418 kts | 194° |
| 2026-05-06 10:21 | 50.57032 | 14.77706 | 35801 ft | 419 kts | 194° |
| 2026-05-06 10:22 | 50.51308 | 14.76099 | 35799 ft | 416 kts | 194° |
| 2026-05-06 10:22 | 50.45633 | 14.74509 | 35788 ft | 413 kts | 194° |
| 2026-05-06 10:23 | 50.39990 | 14.72931 | 35821 ft | 411 kts | 194° |
| 2026-05-06 10:23 | 50.34353 | 14.71357 | 35804 ft | 411 kts | 194° |
| 2026-05-06 10:24 | 50.28748 | 14.69797 | 35824 ft | 412 kts | 194° |
| 2026-05-06 10:24 | 50.23092 | 14.68226 | 35829 ft | 413 kts | 194° |
| 2026-05-06 10:25 | 50.17429 | 14.66658 | 35831 ft | 413 kts | 194° |
| 2026-05-06 10:25 | 50.11760 | 14.65092 | 35830 ft | 415 kts | 194° |
| 2026-05-06 10:26 | 50.06071 | 14.63525 | 35833 ft | 416 kts | 194° |
| 2026-05-06 10:26 | 50.00363 | 14.61956 | 35832 ft | 417 kts | 194° |
| 2026-05-06 10:27 | 49.94637 | 14.60385 | 35812 ft | 418 kts | 194° |
| 2026-05-06 10:27 | 49.88926 | 14.58823 | 35800 ft | 419 kts | 194° |
| 2026-05-06 10:28 | 49.83170 | 14.57252 | 35828 ft | 421 kts | 194° |
| 2026-05-06 10:28 | 49.77383 | 14.55677 | 35813 ft | 422 kts | 194° |
| 2026-05-06 10:29 | 49.71595 | 14.54106 | 35795 ft | 421 kts | 194° |
| 2026-05-06 10:29 | 49.65822 | 14.52543 | 35814 ft | 421 kts | 194° |
| 2026-05-06 10:30 | 49.60061 | 14.50986 | 35818 ft | 420 kts | 194° |
| 2026-05-06 10:30 | 49.54306 | 14.49434 | 35811 ft | 419 kts | 194° |
| 2026-05-06 10:31 | 49.48558 | 14.47888 | 35811 ft | 419 kts | 194° |
| 2026-05-06 10:31 | 49.42822 | 14.46349 | 35817 ft | 418 kts | 194° |
| 2026-05-06 10:32 | 49.37133 | 14.44825 | 35818 ft | 417 kts | 194° |
| 2026-05-06 10:32 | 49.31420 | 14.43299 | 35821 ft | 417 kts | 194° |
| 2026-05-06 10:33 | 49.25715 | 14.41779 | 35814 ft | 415 kts | 194° |
| 2026-05-06 10:33 | 49.20022 | 14.40266 | 35814 ft | 415 kts | 194° |
| 2026-05-06 10:34 | 49.14334 | 14.38756 | 35817 ft | 414 kts | 194° |
| 2026-05-06 10:34 | 49.08649 | 14.37252 | 35819 ft | 414 kts | 194° |
| 2026-05-06 10:35 | 49.02978 | 14.35754 | 35817 ft | 414 kts | 194° |
| 2026-05-06 10:35 | 48.97322 | 14.34181 | 35809 ft | 410 kts | 199° |
| 2026-05-06 10:36 | 48.92091 | 14.30941 | 35819 ft | 404 kts | 213° |
| 2026-05-06 10:36 | 48.88195 | 14.27053 | 35814 ft | 402 kts | 216° |
| 2026-05-06 10:37 | 48.83539 | 14.22327 | 35816 ft | 403 kts | 215° |
| 2026-05-06 10:37 | 48.78099 | 14.16860 | 35820 ft | 404 kts | 215° |
| 2026-05-06 10:38 | 48.74170 | 14.12934 | 35826 ft | 404 kts | 215° |
| 2026-05-06 10:38 | 48.69491 | 14.08271 | 35824 ft | 405 kts | 215° |
| 2026-05-06 10:39 | 48.64779 | 14.03588 | 35802 ft | 405 kts | 215° |
| 2026-05-06 10:39 | 48.60059 | 13.98905 | 35812 ft | 406 kts | 215° |
| 2026-05-06 10:40 | 48.55360 | 13.94256 | 35816 ft | 406 kts | 215° |
| 2026-05-06 10:40 | 48.50634 | 13.89591 | 35806 ft | 405 kts | 214° |
| 2026-05-06 10:41 | 48.45920 | 13.84949 | 35797 ft | 404 kts | 215° |
| 2026-05-06 10:41 | 48.41202 | 13.80310 | 35809 ft | 404 kts | 215° |
| 2026-05-06 10:42 | 48.36484 | 13.75682 | 35808 ft | 404 kts | 215° |
| 2026-05-06 10:42 | 48.31761 | 13.71061 | 35805 ft | 405 kts | 214° |
| 2026-05-06 10:43 | 48.27059 | 13.66470 | 35810 ft | 405 kts | 214° |
| 2026-05-06 10:44 | 48.19962 | 13.59561 | 35798 ft | 406 kts | 215° |
| 2026-05-06 10:44 | 48.15199 | 13.54936 | 35805 ft | 407 kts | 215° |
| 2026-05-06 10:45 | 48.10434 | 13.50321 | 35803 ft | 409 kts | 215° |
| 2026-05-06 10:45 | 48.05684 | 13.45729 | 35793 ft | 409 kts | 215° |
| 2026-05-06 10:46 | 48.00896 | 13.41112 | 35794 ft | 410 kts | 215° |
| 2026-05-06 10:46 | 47.96103 | 13.36501 | 35790 ft | 410 kts | 215° |
| 2026-05-06 10:47 | 47.91299 | 13.31890 | 35796 ft | 410 kts | 215° |
| 2026-05-06 10:47 | 47.86501 | 13.27293 | 35795 ft | 409 kts | 214° |
| 2026-05-06 10:48 | 47.81717 | 13.22721 | 35782 ft | 407 kts | 214° |
| 2026-05-06 10:48 | 47.76956 | 13.18176 | 35793 ft | 406 kts | 214° |
| 2026-05-06 10:49 | 47.72212 | 13.13660 | 35812 ft | 404 kts | 214° |
| 2026-05-06 10:49 | 47.67483 | 13.09174 | 35798 ft | 403 kts | 214° |
| 2026-05-06 10:50 | 47.62772 | 13.04714 | 35779 ft | 401 kts | 214° |
| 2026-05-06 10:50 | 47.58107 | 13.00304 | 35788 ft | 400 kts | 214° |
| 2026-05-06 10:51 | 47.53420 | 12.95882 | 35767 ft | 399 kts | 214° |
| 2026-05-06 10:51 | 47.48753 | 12.91489 | 35748 ft | 397 kts | 214° |
| 2026-05-06 10:52 | 47.44080 | 12.87097 | 35767 ft | 399 kts | 214° |
| 2026-05-06 10:52 | 47.39385 | 12.82697 | 35780 ft | 400 kts | 214° |
| 2026-05-06 10:53 | 47.34708 | 12.78329 | 35774 ft | 400 kts | 214° |
| 2026-05-06 10:53 | 47.30003 | 12.73935 | 35801 ft | 399 kts | 214° |
| 2026-05-06 10:54 | 47.25299 | 12.69547 | 35821 ft | 400 kts | 214° |
| 2026-05-06 10:54 | 47.20579 | 12.65169 | 35807 ft | 401 kts | 214° |
| 2026-05-06 10:55 | 47.15846 | 12.60775 | 35840 ft | 403 kts | 214° |
| 2026-05-06 10:55 | 47.11086 | 12.56368 | 35821 ft | 404 kts | 214° |
| 2026-05-06 10:56 | 47.06359 | 12.52007 | 35807 ft | 404 kts | 214° |
| 2026-05-06 10:56 | 47.01619 | 12.47652 | 35903 ft | 399 kts | 215° |
| 2026-05-06 10:57 | 46.96899 | 12.43295 | 35893 ft | 402 kts | 215° |
| 2026-05-06 10:57 | 46.92144 | 12.38930 | 35916 ft | 404 kts | 215° |
| 2026-05-06 10:58 | 46.87400 | 12.34590 | 35929 ft | 404 kts | 214° |
| 2026-05-06 10:58 | 46.82730 | 12.30041 | 35991 ft | 401 kts | 223° |
| 2026-05-06 10:59 | 46.79010 | 12.23981 | 35967 ft | 401 kts | 234° |
| 2026-05-06 10:59 | 46.76299 | 12.16845 | 35873 ft | 403 kts | 242° |
| 2026-05-06 11:00 | 46.73777 | 12.09510 | 35849 ft | 403 kts | 242° |
| 2026-05-06 11:00 | 46.71252 | 12.02242 | 35877 ft | 402 kts | 241° |
| 2026-05-06 11:01 | 46.68722 | 11.95035 | 35893 ft | 403 kts | 241° |
| 2026-05-06 11:01 | 46.66161 | 11.87770 | 35875 ft | 403 kts | 241° |
| 2026-05-06 11:02 | 46.63600 | 11.80522 | 35878 ft | 402 kts | 241° |
| 2026-05-06 11:02 | 46.61039 | 11.73295 | 35893 ft | 402 kts | 241° |
| 2026-05-06 11:03 | 46.58476 | 11.66070 | 35896 ft | 402 kts | 241° |
| 2026-05-06 11:03 | 46.55918 | 11.58860 | 35898 ft | 402 kts | 241° |
| 2026-05-06 11:04 | 46.53351 | 11.51646 | 35874 ft | 402 kts | 241° |
| 2026-05-06 11:04 | 46.50781 | 11.44442 | 35886 ft | 401 kts | 241° |
| 2026-05-06 11:05 | 46.48211 | 11.37254 | 35847 ft | 400 kts | 240° |
| 2026-05-06 11:05 | 46.45670 | 11.30138 | 35889 ft | 400 kts | 242° |
| 2026-05-06 11:05 | 46.44442 | 11.26579 | 35881 ft | 388 kts | 242° |
| 2026-05-06 11:06 | 46.43260 | 11.23108 | 35422 ft | 382 kts | 241° |
| 2026-05-06 11:06 | 46.42091 | 11.19675 | 34908 ft | 377 kts | 241° |
| 2026-05-06 11:06 | 46.40940 | 11.16290 | 34372 ft | 371 kts | 240° |
| 2026-05-06 11:06 | 46.39796 | 11.12960 | 33915 ft | 366 kts | 240° |
| 2026-05-06 11:07 | 46.38667 | 11.09684 | 33398 ft | 358 kts | 240° |
| 2026-05-06 11:07 | 46.37574 | 11.06515 | 33156 ft | 350 kts | 240° |
| 2026-05-06 11:07 | 46.36485 | 11.03372 | 32895 ft | 357 kts | 240° |
| 2026-05-06 11:07 | 46.35346 | 11.00086 | 32644 ft | 363 kts | 240° |
| 2026-05-06 11:08 | 46.34219 | 10.96833 | 32381 ft | 369 kts | 240° |
| 2026-05-06 11:08 | 46.33060 | 10.93488 | 32117 ft | 375 kts | 240° |
| 2026-05-06 11:08 | 46.31884 | 10.90101 | 31784 ft | 376 kts | 240° |
| 2026-05-06 11:08 | 46.30716 | 10.86740 | 30975 ft | 373 kts | 240° |
| 2026-05-06 11:09 | 46.29540 | 10.83369 | 29790 ft | 378 kts | 240° |
| 2026-05-06 11:09 | 46.28341 | 10.79929 | 28247 ft | 387 kts | 240° |
| 2026-05-06 11:09 | 46.27121 | 10.76430 | 27249 ft | 385 kts | 240° |
| 2026-05-06 11:09 | 46.25919 | 10.72981 | 26374 ft | 381 kts | 240° |
| 2026-05-06 11:10 | 46.24734 | 10.69582 | 25570 ft | 375 kts | 240° |
| 2026-05-06 11:10 | 46.23587 | 10.66295 | 25023 ft | 370 kts | 240° |
| 2026-05-06 11:10 | 46.22413 | 10.62948 | 24422 ft | 379 kts | 240° |
| 2026-05-06 11:10 | 46.21193 | 10.59475 | 23831 ft | 397 kts | 240° |
| 2026-05-06 11:11 | 46.19920 | 10.55858 | 23105 ft | 406 kts | 240° |
| 2026-05-06 11:11 | 46.18667 | 10.52281 | 22391 ft | 393 kts | 240° |
| 2026-05-06 11:11 | 46.17452 | 10.48815 | 21742 ft | 381 kts | 239° |
| 2026-05-06 11:11 | 46.16257 | 10.45423 | 21155 ft | 378 kts | 239° |
| 2026-05-06 11:12 | 46.15072 | 10.42060 | 20497 ft | 376 kts | 239° |
| 2026-05-06 11:12 | 46.13863 | 10.38648 | 19730 ft | 387 kts | 239° |
| 2026-05-06 11:12 | 46.12616 | 10.35141 | 19031 ft | 398 kts | 239° |
| 2026-05-06 11:12 | 46.11355 | 10.31579 | 18357 ft | 398 kts | 239° |
| 2026-05-06 11:13 | 46.10103 | 10.28042 | 17710 ft | 394 kts | 239° |
| 2026-05-06 11:13 | 46.08848 | 10.24547 | 17036 ft | 391 kts | 239° |
| 2026-05-06 11:13 | 46.07627 | 10.21083 | 16449 ft | 385 kts | 239° |
| 2026-05-06 11:13 | 46.06419 | 10.17659 | 15832 ft | 381 kts | 239° |
| 2026-05-06 11:14 | 46.05182 | 10.14380 | 15349 ft | 372 kts | 234° |
| 2026-05-06 11:14 | 46.03643 | 10.11495 | 15181 ft | 355 kts | 226° |
| 2026-05-06 11:14 | 46.01930 | 10.09034 | 15021 ft | 341 kts | 218° |
| 2026-05-06 11:14 | 46.00077 | 10.07003 | 14874 ft | 329 kts | 215° |
| 2026-05-06 11:15 | 45.98276 | 10.05050 | 14731 ft | 319 kts | 216° |
| 2026-05-06 11:15 | 45.96539 | 10.03149 | 14586 ft | 308 kts | 216° |
| 2026-05-06 11:15 | 45.94866 | 10.01304 | 14474 ft | 299 kts | 216° |
| 2026-05-06 11:15 | 45.93238 | 9.99510 | 14356 ft | 290 kts | 216° |
| 2026-05-06 11:16 | 45.91661 | 9.97778 | 14244 ft | 282 kts | 216° |
| 2026-05-06 11:16 | 45.90138 | 9.96106 | 14144 ft | 275 kts | 217° |
| 2026-05-06 11:16 | 45.88626 | 9.94449 | 13874 ft | 273 kts | 216° |
| 2026-05-06 11:16 | 45.87126 | 9.92820 | 13602 ft | 270 kts | 216° |
| 2026-05-06 11:17 | 45.85634 | 9.91204 | 13298 ft | 266 kts | 216° |
| 2026-05-06 11:17 | 45.84161 | 9.89603 | 12933 ft | 267 kts | 216° |
| 2026-05-06 11:17 | 45.82666 | 9.87977 | 12545 ft | 272 kts | 216° |
| 2026-05-06 11:17 | 45.81143 | 9.86320 | 12164 ft | 275 kts | 215° |
| 2026-05-06 11:18 | 45.79615 | 9.84658 | 11768 ft | 276 kts | 216° |
| 2026-05-06 11:18 | 45.78088 | 9.82992 | 11399 ft | 275 kts | 215° |
| 2026-05-06 11:18 | 45.76558 | 9.81331 | 11011 ft | 276 kts | 215° |
| 2026-05-06 11:18 | 45.75030 | 9.79674 | 10638 ft | 276 kts | 216° |
| 2026-05-06 11:19 | 45.73500 | 9.78012 | 10289 ft | 275 kts | 216° |
| 2026-05-06 11:19 | 45.71984 | 9.76347 | 9942 ft | 275 kts | 216° |
| 2026-05-06 11:19 | 45.70486 | 9.74694 | 9551 ft | 275 kts | 216° |
| 2026-05-06 11:19 | 45.68967 | 9.73014 | 9166 ft | 276 kts | 217° |
| 2026-05-06 11:20 | 45.67452 | 9.71337 | 8779 ft | 276 kts | 217° |
| 2026-05-06 11:20 | 45.65944 | 9.69667 | 8438 ft | 271 kts | 216° |
| 2026-05-06 11:20 | 45.64469 | 9.68029 | 8114 ft | 265 kts | 217° |
| 2026-05-06 11:20 | 45.63030 | 9.66431 | 7812 ft | 260 kts | 217° |
| 2026-05-06 11:21 | 45.61678 | 9.64754 | 7493 ft | 257 kts | 230° |
| 2026-05-06 11:21 | 45.60895 | 9.62482 | 7194 ft | 257 kts | 253° |
| 2026-05-06 11:21 | 45.60784 | 9.59946 | 7146 ft | 256 kts | 272° |
| 2026-05-06 11:21 | 45.61277 | 9.57503 | 6897 ft | 256 kts | 288° |
| 2026-05-06 11:22 | 45.61914 | 9.55175 | 6608 ft | 249 kts | 285° |
| 2026-05-06 11:22 | 45.62479 | 9.52874 | 6298 ft | 242 kts | 285° |
| 2026-05-06 11:22 | 45.62998 | 9.50629 | 6037 ft | 235 kts | 283° |
| 2026-05-06 11:22 | 45.63464 | 9.48415 | 5761 ft | 230 kts | 283° |
| 2026-05-06 11:23 | 45.63915 | 9.46250 | 5513 ft | 224 kts | 282° |
| 2026-05-06 11:23 | 45.64356 | 9.44183 | 5308 ft | 216 kts | 285° |
| 2026-05-06 11:23 | 45.65188 | 9.42438 | 5077 ft | 217 kts | 326° |
| 2026-05-06 11:23 | 45.66627 | 9.41983 | 4937 ft | 216 kts | 10° |
| 2026-05-06 11:24 | 45.68120 | 9.42429 | 4807 ft | 222 kts | 16° |
| 2026-05-06 11:24 | 45.69585 | 9.43056 | 4705 ft | 214 kts | 27° |
| 2026-05-06 11:24 | 45.70650 | 9.44392 | 4274 ft | 200 kts | 71° |
| 2026-05-06 11:24 | 45.70816 | 9.46229 | 4318 ft | 186 kts | 94° |
| 2026-05-06 11:25 | 45.70797 | 9.47488 | 4163 ft | 194 kts | 99° |
| 2026-05-06 11:25 | 45.70582 | 9.49372 | 3924 ft | 189 kts | 105° |
| 2026-05-06 11:25 | 45.70336 | 9.51178 | 3693 ft | 178 kts | 105° |
| 2026-05-06 11:25 | 45.70084 | 9.52832 | 3516 ft | 165 kts | 107° |
| 2026-05-06 11:26 | 45.69805 | 9.54426 | 3285 ft | 165 kts | 107° |
| 2026-05-06 11:26 | 45.69515 | 9.56018 | 3025 ft | 164 kts | 107° |
| 2026-05-06 11:26 | 45.69225 | 9.57577 | 2766 ft | 159 kts | 107° |
| 2026-05-06 11:26 | 45.68955 | 9.59030 | 2536 ft | 146 kts | 106° |
| 2026-05-06 11:27 | 45.68703 | 9.60376 | 2326 ft | 136 kts | 106° |
| 2026-05-06 11:27 | 45.68457 | 9.61692 | 2117 ft | 138 kts | 106° |
| 2026-05-06 11:27 | 45.68202 | 9.63056 | 1886 ft | 144 kts | 106° |
| 2026-05-06 11:27 | 45.67980 | 9.64249 | 1729 ft | 138 kts | 104° |
| 2026-05-06 11:28 | 45.67731 | 9.65585 | 1479 ft | 143 kts | 105° |
| 2026-05-06 11:28 | 45.67476 | 9.66945 | 1170 ft | 138 kts | 102° |
| 2026-05-06 11:28 | 45.67240 | 9.68226 | 976 ft | 127 kts | 102° |
| 2026-05-06 11:28 | 45.67017 | 9.69431 | 802 ft | 126 kts | 102° |
| 2026-05-06 11:29 | 45.66817 | 9.70514 | 786 ft | 93 kts | 105° |
| 2026-05-06 11:29 | 45.66697 | 9.71160 | 786 ft | 28 kts | 105° |
| 2026-05-06 11:29 | 45.66650 | 9.71420 | 786 ft | 26 kts | 105° |
| 2026-05-06 11:29 | 45.66604 | 9.71664 | 786 ft | 25 kts | 105° |
| 2026-05-06 11:30 | 45.66557 | 9.71882 | 786 ft | 21 kts | 131° |
| 2026-05-06 11:30 | 45.66470 | 9.71787 | 786 ft | 20 kts | 255° |
| 2026-05-06 11:30 | 45.66438 | 9.71596 | 786 ft | 19 kts | 268° |
| 2026-05-06 11:30 | 45.66466 | 9.71408 | 786 ft | 22 kts | 285° |
| 2026-05-06 11:31 | 45.66513 | 9.71176 | 786 ft | 26 kts | 292° |
| 2026-05-06 11:31 | 45.66572 | 9.70920 | 786 ft | 29 kts | 284° |
| 2026-05-06 11:31 | 45.66625 | 9.70633 | 786 ft | 31 kts | 284° |
| 2026-05-06 11:31 | 45.66683 | 9.70320 | 786 ft | 34 kts | 285° |
| 2026-05-06 11:32 | 45.66730 | 9.70068 | 786 ft | 20 kts | 283° |
| 2026-05-06 11:32 | 45.66763 | 9.69885 | 786 ft | 11 kts | 285° |
| 2026-05-06 11:32 | 45.66726 | 9.69816 | 786 ft | 11 kts | 194° |
| 2026-05-06 11:32 | 45.66687 | 9.69801 | 786 ft | 2 kts | 195° |
| 2026-05-06 11:33 | 45.66680 | 9.69799 | 786 ft | 0 kts | 195° |